sensor_id;sensor_type;location;lat;lon;timestamp;pressure;altitude;pressure_sealevel;temperature;humidity
46199;BME280;31928;52.104;10.030;2022-10-18T00:00:04;101477.28;;;22.84;51.44
46199;BME280;31928;52.104;10.030;2022-10-18T00:02:31;101478.41;;;22.83;51.44
46199;BME280;31928;52.104;10.030;2022-10-18T00:04:57;101481.16;;;22.83;51.52
46199;BME280;31928;52.104;10.030;2022-10-18T00:07:24;101484.97;;;22.82;51.68
46199;BME280;31928;52.104;10.030;2022-10-18T00:09:50;101487.69;;;22.82;51.95
46199;BME280;31928;52.104;10.030;2022-10-18T00:12:16;101490.44;;;22.82;51.64
46199;BME280;31928;52.104;10.030;2022-10-18T00:14:43;101491.25;;;22.82;51.64
46199;BME280;31928;52.104;10.030;2022-10-18T00:17:09;101487.69;;;22.82;51.65
46199;BME280;31928;52.104;10.030;2022-10-18T00:19:36;101496.72;;;22.82;51.95
46199;BME280;31928;52.104;10.030;2022-10-18T00:22:02;101488.78;;;22.81;51.69
46199;BME280;31928;52.104;10.030;2022-10-18T00:24:29;101495.91;;;22.82;51.92
46199;BME280;31928;52.104;10.030;2022-10-18T00:26:55;101496.72;;;22.82;51.83
46199;BME280;31928;52.104;10.030;2022-10-18T00:29:21;101503.03;;;22.83;51.71
46199;BME280;31928;52.104;10.030;2022-10-18T00:31:48;101507.66;;;22.82;51.49
46199;BME280;31928;52.104;10.030;2022-10-18T00:34:14;101503.25;;;22.81;51.97
46199;BME280;31928;52.104;10.030;2022-10-18T00:36:42;101504.91;;;22.82;51.87
46199;BME280;31928;52.104;10.030;2022-10-18T00:39:11;101506.84;;;22.82;52.03
46199;BME280;31928;52.104;10.030;2022-10-18T00:41:39;101500.28;;;22.83;51.66
46199;BME280;31928;52.104;10.030;2022-10-18T00:44:55;101500.53;;;22.81;52.10
46199;BME280;31928;52.104;10.030;2022-10-18T00:46:56;101494.81;;;22.83;51.48
46199;BME280;31928;52.104;10.030;2022-10-18T00:51:55;101511.47;;;22.81;51.91
46199;BME280;31928;52.104;10.030;2022-10-18T00:54:23;101503.53;;;22.80;51.79
46199;BME280;31928;52.104;10.030;2022-10-18T00:56:50;101507.34;;;22.79;51.75
46199;BME280;31928;52.104;10.030;2022-10-18T00:59:17;101506.53;;;22.78;52.15
46199;BME280;31928;52.104;10.030;2022-10-18T01:01:44;101506.81;;;22.77;51.96
46199;BME280;31928;52.104;10.030;2022-10-18T01:04:11;101517.47;;;22.78;51.75
46199;BME280;31928;52.104;10.030;2022-10-18T01:06:41;101516.66;;;22.78;52.03
46199;BME280;31928;52.104;10.030;2022-10-18T01:09:20;101515.00;;;22.77;51.82
46199;BME280;31928;52.104;10.030;2022-10-18T01:11:54;101516.09;;;22.76;52.27
46199;BME280;31928;52.104;10.030;2022-10-18T01:32:46;101495.81;;;22.67;52.03
46199;BME280;31928;52.104;10.030;2022-10-18T01:35:26;101498.00;;;22.65;51.75
46199;BME280;31928;52.104;10.030;2022-10-18T01:37:53;101501.81;;;22.64;51.87
46199;BME280;31928;52.104;10.030;2022-10-18T01:40:21;101509.16;;;22.63;51.92
46199;BME280;31928;52.104;10.030;2022-10-18T01:42:49;101492.22;;;22.61;51.89
46199;BME280;31928;52.104;10.030;2022-10-18T01:45:15;101494.16;;;22.61;51.81
46199;BME280;31928;52.104;10.030;2022-10-18T01:47:43;101493.31;;;22.60;51.92
46199;BME280;31928;52.104;10.030;2022-10-18T01:50:09;101486.19;;;22.59;52.16
46199;BME280;31928;52.104;10.030;2022-10-18T01:52:46;101482.63;;;22.59;52.39
46199;BME280;31928;52.104;10.030;2022-10-18T01:55:12;101488.09;;;22.59;52.56
46199;BME280;31928;52.104;10.030;2022-10-18T01:57:40;101486.19;;;22.59;52.80
46199;BME280;31928;52.104;10.030;2022-10-18T02:07:47;101495.78;;;22.62;52.39
46199;BME280;31928;52.104;10.030;2022-10-18T02:11:18;101494.16;;;22.61;52.24
46199;BME280;31928;52.104;10.030;2022-10-18T02:13:26;101488.69;;;22.61;52.16
46199;BME280;31928;52.104;10.030;2022-10-18T02:15:56;101481.56;;;22.60;51.90
46199;BME280;31928;52.104;10.030;2022-10-18T02:18:26;101477.16;;;22.59;52.14
46199;BME280;31928;52.104;10.030;2022-10-18T02:20:54;101469.50;;;22.56;51.91
46199;BME280;31928;52.104;10.030;2022-10-18T02:23:22;101465.38;;;22.53;51.62
46199;BME280;31928;52.104;10.030;2022-10-18T02:25:50;101459.03;;;22.48;51.84
46199;BME280;31928;52.104;10.030;2022-10-18T02:28:17;101465.59;;;22.42;51.90
46199;BME280;31928;52.104;10.030;2022-10-18T02:31:13;101460.09;;;22.37;52.00
46199;BME280;31928;52.104;10.030;2022-10-18T02:33:37;101454.56;;;22.32;51.74
46199;BME280;31928;52.104;10.030;2022-10-18T02:36:18;101461.66;;;22.28;52.04
46199;BME280;31928;52.104;10.030;2022-10-18T02:38:48;101453.38;;;22.23;52.29
46199;BME280;31928;52.104;10.030;2022-10-18T02:41:24;101459.94;;;22.22;52.32
46199;BME280;31928;52.104;10.030;2022-10-18T02:43:51;101452.28;;;22.19;52.65
46199;BME280;31928;52.104;10.030;2022-10-18T02:46:18;101459.66;;;22.19;52.63
46199;BME280;31928;52.104;10.030;2022-10-18T02:48:47;101453.34;;;22.18;52.75
46199;BME280;31928;52.104;10.030;2022-10-18T02:51:14;101459.38;;;22.20;52.76
46199;BME280;31928;52.104;10.030;2022-10-18T02:53:41;101463.78;;;22.21;52.62
46199;BME280;31928;52.104;10.030;2022-10-18T02:56:07;101466.50;;;22.21;52.70
46199;BME280;31928;52.104;10.030;2022-10-18T02:58:34;101465.16;;;22.24;52.57
46199;BME280;31928;52.104;10.030;2022-10-18T03:01:00;101465.97;;;22.24;52.73
46199;BME280;31928;52.104;10.030;2022-10-18T03:03:27;101470.13;;;22.27;52.71
46199;BME280;31928;52.104;10.030;2022-10-18T03:05:53;101470.94;;;22.27;52.75
46199;BME280;31928;52.104;10.030;2022-10-18T03:08:19;101465.47;;;22.27;52.58
46199;BME280;31928;52.104;10.030;2022-10-18T03:10:47;101465.47;;;22.27;52.70
46199;BME280;31928;52.104;10.030;2022-10-18T03:13:14;101467.13;;;22.28;53.04
46199;BME280;31928;52.104;10.030;2022-10-18T03:15:40;101467.94;;;22.29;52.41
46199;BME280;31928;52.104;10.030;2022-10-18T03:18:07;101472.59;;;22.28;52.42
46199;BME280;31928;52.104;10.030;2022-10-18T03:20:34;101470.94;;;22.27;52.19
46199;BME280;31928;52.104;10.030;2022-10-18T03:23:00;101467.38;;;22.27;52.52
46199;BME280;31928;52.104;10.030;2022-10-18T03:25:27;101473.09;;;22.25;52.21
46199;BME280;31928;52.104;10.030;2022-10-18T03:27:53;101458.84;;;22.23;52.83
46199;BME280;31928;52.104;10.030;2022-10-18T03:30:19;101456.13;;;22.23;52.59
46199;BME280;31928;52.104;10.030;2022-10-18T03:32:46;101444.66;;;22.21;52.27
46199;BME280;31928;52.104;10.030;2022-10-18T03:35:12;101437.53;;;22.20;52.73
46199;BME280;31928;52.104;10.030;2022-10-18T03:37:39;101444.88;;;22.20;52.79
46199;BME280;31928;52.104;10.030;2022-10-18T03:40:05;101448.47;;;22.20;52.65
46199;BME280;31928;52.104;10.030;2022-10-18T03:42:32;101446.81;;;22.19;52.59
46199;BME280;31928;52.104;10.030;2022-10-18T03:44:59;101446.81;;;22.19;52.90
46199;BME280;31928;52.104;10.030;2022-10-18T03:47:25;101446.81;;;22.19;52.56
46199;BME280;31928;52.104;10.030;2022-10-18T03:49:52;101441.34;;;22.19;52.96
46199;BME280;31928;52.104;10.030;2022-10-18T03:52:22;101442.16;;;22.20;52.78
46199;BME280;31928;52.104;10.030;2022-10-18T03:54:48;101446.53;;;22.21;52.98
46199;BME280;31928;52.104;10.030;2022-10-18T03:57:15;101435.59;;;22.21;52.98
46199;BME280;31928;52.104;10.030;2022-10-18T03:59:41;101434.78;;;22.20;53.10
46199;BME280;31928;52.104;10.030;2022-10-18T04:02:08;101430.16;;;22.21;53.27
46199;BME280;31928;52.104;10.030;2022-10-18T04:04:35;101426.59;;;22.20;52.97
46199;BME280;31928;52.104;10.030;2022-10-18T04:07:01;101429.88;;;22.22;52.53
46199;BME280;31928;52.104;10.030;2022-10-18T04:09:27;101440.81;;;22.22;52.48
46199;BME280;31928;52.104;10.030;2022-10-18T04:11:54;101444.66;;;22.21;52.56
46199;BME280;31928;52.104;10.030;2022-10-18T04:14:20;101441.59;;;22.18;52.82
46199;BME280;31928;52.104;10.030;2022-10-18T04:16:47;101438.56;;;22.14;52.61
46199;BME280;31928;52.104;10.030;2022-10-18T04:19:13;101436.91;;;22.13;52.93
46199;BME280;31928;52.104;10.030;2022-10-18T04:21:40;101439.09;;;22.11;52.78
46199;BME280;31928;52.104;10.030;2022-10-18T04:24:06;101438.25;;;22.11;52.78
46199;BME280;31928;52.104;10.030;2022-10-18T04:26:33;101440.19;;;22.10;52.91
46199;BME280;31928;52.104;10.030;2022-10-18T04:28:59;101438.25;;;22.11;52.91
46199;BME280;31928;52.104;10.030;2022-10-18T04:31:26;101436.91;;;22.13;52.59
46199;BME280;31928;52.104;10.030;2022-10-18T04:33:54;101437.50;;;22.15;52.90
46199;BME280;31928;52.104;10.030;2022-10-18T04:36:21;101442.16;;;22.20;52.87
46199;BME280;31928;52.104;10.030;2022-10-18T04:38:47;101437.00;;;22.23;52.89
46199;BME280;31928;52.104;10.030;2022-10-18T04:41:13;101434.34;;;22.28;52.86
46199;BME280;31928;52.104;10.030;2022-10-18T04:43:40;101422.88;;;22.31;53.01
46199;BME280;31928;52.104;10.030;2022-10-18T04:46:06;101422.91;;;22.36;52.85
46199;BME280;31928;52.104;10.030;2022-10-18T04:48:33;101426.75;;;22.40;52.71
46199;BME280;31928;52.104;10.030;2022-10-18T04:50:59;101434.97;;;22.45;52.79
46199;BME280;31928;52.104;10.030;2022-10-18T04:53:26;101431.97;;;22.46;52.56
46199;BME280;31928;52.104;10.030;2022-10-18T04:58:28;101434.22;;;22.49;52.52
46199;BME280;31928;52.104;10.030;2022-10-18T05:00:54;101435.59;;;22.52;52.24
46199;BME280;31928;52.104;10.030;2022-10-18T05:03:21;101438.31;;;22.52;52.46
46199;BME280;31928;52.104;10.030;2022-10-18T05:05:47;101440.50;;;22.55;52.53
46199;BME280;31928;52.104;10.030;2022-10-18T05:08:33;101443.78;;;22.57;52.70
46199;BME280;31928;52.104;10.030;2022-10-18T05:11:00;101442.44;;;22.59;52.96
46199;BME280;31928;52.104;10.030;2022-10-18T05:13:27;101448.47;;;22.61;52.86
46199;BME280;31928;52.104;10.030;2022-10-18T05:15:54;101457.50;;;22.62;52.73
46199;BME280;31928;52.104;10.030;2022-10-18T05:18:20;101459.16;;;22.63;52.03
46199;BME280;31928;52.104;10.030;2022-10-18T05:20:47;101458.59;;;22.61;52.13
46199;BME280;31928;52.104;10.030;2022-10-18T05:23:13;101455.56;;;22.57;51.73
46199;BME280;31928;52.104;10.030;2022-10-18T05:25:40;101450.88;;;22.53;51.83
46199;BME280;31928;52.104;10.030;2022-10-18T05:28:07;101450.84;;;22.48;51.79
46199;BME280;31928;52.104;10.030;2022-10-18T05:30:46;101445.38;;;22.43;51.56
46199;BME280;31928;52.104;10.030;2022-10-18T05:33:12;101447.50;;;22.36;51.59
46199;BME280;31928;52.104;10.030;2022-10-18T05:35:39;101448.00;;;22.28;51.71
46199;BME280;31928;52.104;10.030;2022-10-18T05:38:05;101468.13;;;22.22;51.85
46199;BME280;31928;52.104;10.030;2022-10-18T05:40:32;101458.78;;;22.13;51.81
46199;BME280;31928;52.104;10.030;2022-10-18T05:42:59;101469.09;;;22.06;51.95
46199;BME280;31928;52.104;10.030;2022-10-18T05:45:25;101471.47;;;21.98;51.71
46199;BME280;31928;52.104;10.030;2022-10-18T05:47:52;101481.00;;;21.90;51.74
46199;BME280;31928;52.104;10.030;2022-10-18T05:50:19;101484.75;;;21.84;51.98
46199;BME280;31928;52.104;10.030;2022-10-18T05:52:45;101483.06;;;21.78;52.07
46199;BME280;31928;52.104;10.030;2022-10-18T05:55:12;101482.47;;;21.72;51.97
46199;BME280;31928;52.104;10.030;2022-10-18T05:57:41;101485.13;;;21.67;51.99
46199;BME280;31928;52.104;10.030;2022-10-18T06:00:08;101485.06;;;21.62;52.39
46199;BME280;31928;52.104;10.030;2022-10-18T06:02:35;101485.03;;;21.57;52.38
46199;BME280;31928;52.104;10.030;2022-10-18T06:05:01;101494.53;;;21.54;52.58
46199;BME280;31928;52.104;10.030;2022-10-18T06:07:28;101497.00;;;21.51;52.33
46199;BME280;31928;52.104;10.030;2022-10-18T06:09:54;101495.81;;;21.47;52.32
46199;BME280;31928;52.104;10.030;2022-10-18T06:12:21;101483.78;;;21.43;52.38
46199;BME280;31928;52.104;10.030;2022-10-18T06:14:47;101485.09;;;21.40;52.57
46199;BME280;31928;52.104;10.030;2022-10-18T06:17:14;101479.06;;;21.38;52.45
46199;BME280;31928;52.104;10.030;2022-10-18T06:19:41;101482.31;;;21.35;52.68
46199;BME280;31928;52.104;10.030;2022-10-18T06:22:10;101485.31;;;21.34;52.54
46199;BME280;31928;52.104;10.030;2022-10-18T06:24:37;101477.88;;;21.29;52.62
46199;BME280;31928;52.104;10.030;2022-10-18T06:27:04;101479.22;;;21.27;52.87
46199;BME280;31928;52.104;10.030;2022-10-18T06:29:35;101485.75;;;21.26;52.82
46199;BME280;31928;52.104;10.030;2022-10-18T06:32:02;101485.19;;;21.24;53.02
46199;BME280;31928;52.104;10.030;2022-10-18T06:34:31;101480.22;;;21.21;52.65
46199;BME280;31928;52.104;10.030;2022-10-18T06:36:59;101487.03;;;21.18;53.06
46199;BME280;31928;52.104;10.030;2022-10-18T06:39:26;101479.94;;;21.17;53.07
46199;BME280;31928;52.104;10.030;2022-10-18T06:41:55;101479.59;;;21.14;52.91
46199;BME280;31928;52.104;10.030;2022-10-18T06:44:22;101484.50;;;21.12;53.10
46199;BME280;31928;52.104;10.030;2022-10-18T06:46:48;101476.81;;;21.09;52.79
46199;BME280;31928;52.104;10.030;2022-10-18T06:49:15;101485.00;;;21.09;53.09
46199;BME280;31928;52.104;10.030;2022-10-18T06:51:44;101492.63;;;21.07;53.20
46199;BME280;31928;52.104;10.030;2022-10-18T06:54:11;101486.59;;;21.05;52.92
46199;BME280;31928;52.104;10.030;2022-10-18T06:56:43;101489.56;;;21.04;53.14
46199;BME280;31928;52.104;10.030;2022-10-18T06:59:10;101491.72;;;21.02;53.04
46199;BME280;31928;52.104;10.030;2022-10-18T07:01:36;101498.81;;;21.03;53.34
46199;BME280;31928;52.104;10.030;2022-10-18T07:04:03;101500.16;;;21.00;53.21
46199;BME280;31928;52.104;10.030;2022-10-18T07:06:29;101508.59;;;20.99;53.42
46199;BME280;31928;52.104;10.030;2022-10-18T07:08:56;101497.94;;;20.97;53.09
46199;BME280;31928;52.104;10.030;2022-10-18T07:11:23;101506.13;;;20.97;53.37
46199;BME280;31928;52.104;10.030;2022-10-18T07:13:51;101509.91;;;20.96;53.55
46199;BME280;31928;52.104;10.030;2022-10-18T07:16:19;101514.56;;;20.96;53.40
46199;BME280;31928;52.104;10.030;2022-10-18T07:18:46;101504.97;;;20.93;53.23
46199;BME280;31928;52.104;10.030;2022-10-18T07:21:15;101507.13;;;20.91;53.55
46199;BME280;31928;52.104;10.030;2022-10-18T07:23:42;101514.75;;;20.89;53.23
46199;BME280;31928;52.104;10.030;2022-10-18T07:26:13;101508.72;;;20.87;53.36
46199;BME280;31928;52.104;10.030;2022-10-18T07:28:40;101509.22;;;20.84;53.22
46199;BME280;31928;52.104;10.030;2022-10-18T07:31:07;101515.75;;;20.83;53.37
46199;BME280;31928;52.104;10.030;2022-10-18T07:33:34;101516.25;;;20.80;53.64
46199;BME280;31928;52.104;10.030;2022-10-18T07:36:04;101520.06;;;20.79;53.31
46199;BME280;31928;52.104;10.030;2022-10-18T07:38:31;101518.41;;;20.78;53.41
46199;BME280;31928;52.104;10.030;2022-10-18T07:40:58;101519.72;;;20.76;53.43
46199;BME280;31928;52.104;10.030;2022-10-18T07:43:25;101515.94;;;20.77;53.63
46199;BME280;31928;52.104;10.030;2022-10-18T07:45:55;101509.06;;;20.74;53.50
46199;BME280;31928;52.104;10.030;2022-10-18T07:48:22;101517.25;;;20.74;53.52
46199;BME280;31928;52.104;10.030;2022-10-18T07:50:49;101524.34;;;20.75;53.83
46199;BME280;31928;52.104;10.030;2022-10-18T07:53:15;101531.72;;;20.75;53.85
46199;BME280;31928;52.104;10.030;2022-10-18T07:55:42;101527.09;;;20.75;53.83
46199;BME280;31928;52.104;10.030;2022-10-18T07:58:10;101529.00;;;20.75;53.85
46199;BME280;31928;52.104;10.030;2022-10-18T08:00:36;101536.06;;;20.76;54.22
46199;BME280;31928;52.104;10.030;2022-10-18T08:03:03;101528.75;;;20.76;53.84
46199;BME280;31928;52.104;10.030;2022-10-18T08:05:30;101527.63;;;20.77;53.74
46199;BME280;31928;52.104;10.030;2022-10-18T08:07:57;101525.75;;;20.78;53.96
46199;BME280;31928;52.104;10.030;2022-10-18T08:10:26;101516.75;;;20.77;53.87
46199;BME280;31928;52.104;10.030;2022-10-18T08:12:52;101516.75;;;20.77;53.84
46199;BME280;31928;52.104;10.030;2022-10-18T08:15:19;101519.47;;;20.77;54.17
46199;BME280;31928;52.104;10.030;2022-10-18T08:17:49;101521.38;;;20.77;53.87
46199;BME280;31928;52.104;10.030;2022-10-18T08:20:15;101514.28;;;20.76;54.20
46199;BME280;31928;52.104;10.030;2022-10-18T08:22:55;101517.25;;;20.74;54.16
46199;BME280;31928;52.104;10.030;2022-10-18T08:25:25;101517.25;;;20.74;54.13
46199;BME280;31928;52.104;10.030;2022-10-18T08:27:52;101515.59;;;20.73;54.28
46199;BME280;31928;52.104;10.030;2022-10-18T08:30:18;101508.50;;;20.72;54.12
46199;BME280;31928;52.104;10.030;2022-10-18T08:32:45;101520.47;;;20.71;53.98
46199;BME280;31928;52.104;10.030;2022-10-18T08:35:11;101517.72;;;20.71;54.03
46199;BME280;31928;52.104;10.030;2022-10-18T08:37:38;101520.47;;;20.71;54.22
46199;BME280;31928;52.104;10.030;2022-10-18T08:40:05;101530.31;;;20.72;54.49
46199;BME280;31928;52.104;10.030;2022-10-18T08:45:18;101535.78;;;20.72;54.11
46199;BME280;31928;52.104;10.030;2022-10-18T08:48:04;101539.91;;;20.75;54.48
46199;BME280;31928;52.104;10.030;2022-10-18T08:50:32;101531.47;;;20.76;54.28
46199;BME280;31928;52.104;10.030;2022-10-18T08:58:03;101533.44;;;20.81;54.47
46199;BME280;31928;52.104;10.030;2022-10-18T09:00:38;101532.09;;;20.83;54.07
46199;BME280;31928;52.104;10.030;2022-10-18T09:05:49;101531.59;;;20.86;54.54
46199;BME280;31928;52.104;10.030;2022-10-18T09:08:20;101528.63;;;20.88;54.51
46199;BME280;31928;52.104;10.030;2022-10-18T09:10:58;101539.84;;;20.91;54.28
46199;BME280;31928;52.104;10.030;2022-10-18T09:13:37;101545.88;;;20.93;54.40
46199;BME280;31928;52.104;10.030;2022-10-18T09:16:15;101549.16;;;20.95;54.20
46199;BME280;31928;52.104;10.030;2022-10-18T09:26:24;101544.38;;;21.02;54.08
46199;BME280;31928;52.104;10.030;2022-10-18T09:29:07;101550.38;;;21.04;54.12
46199;BME280;31928;52.104;10.030;2022-10-18T09:31:45;101548.25;;;21.06;54.05
46199;BME280;31928;52.104;10.030;2022-10-18T09:36:52;101560.28;;;21.10;54.35
46199;BME280;31928;52.104;10.030;2022-10-18T09:39:29;101559.22;;;21.11;54.18
46199;BME280;31928;52.104;10.030;2022-10-18T09:42:10;101561.44;;;21.14;54.24
46199;BME280;31928;52.104;10.030;2022-10-18T09:44:38;101551.91;;;21.16;54.40
46199;BME280;31928;52.104;10.030;2022-10-18T09:47:09;101569.69;;;21.19;54.05
46199;BME280;31928;52.104;10.030;2022-10-18T09:49:46;101568.34;;;21.21;54.46
46199;BME280;31928;52.104;10.030;2022-10-18T09:52:24;101567.03;;;21.24;54.23
46199;BME280;31928;52.104;10.030;2022-10-18T09:54:53;101573.63;;;21.28;54.47
46199;BME280;31928;52.104;10.030;2022-10-18T09:57:21;101569.81;;;21.29;54.57
46199;BME280;31928;52.104;10.030;2022-10-18T09:59:50;101566.59;;;21.32;54.63
46199;BME280;31928;52.104;10.030;2022-10-18T10:02:18;101567.97;;;21.34;54.29
46199;BME280;31928;52.104;10.030;2022-10-18T10:04:44;101572.09;;;21.37;54.20
46199;BME280;31928;52.104;10.030;2022-10-18T10:07:12;101577.03;;;21.40;54.25
46199;BME280;31928;52.104;10.030;2022-10-18T10:09:40;101580.63;;;21.40;54.11
46199;BME280;31928;52.104;10.030;2022-10-18T10:12:29;101573.25;;;21.41;54.04
46199;BME280;31928;52.104;10.030;2022-10-18T10:18:04;101574.06;;;21.41;53.89
46199;BME280;31928;52.104;10.030;2022-10-18T10:20:42;101578.69;;;21.41;54.52
46199;BME280;31928;52.104;10.030;2022-10-18T10:25:39;101575.38;;;21.39;54.51
46199;BME280;31928;52.104;10.030;2022-10-18T10:28:13;101574.31;;;21.40;54.08
46199;BME280;31928;52.104;10.030;2022-10-18T10:30:40;101582.50;;;21.40;54.08
46199;BME280;31928;52.104;10.030;2022-10-18T10:33:08;101575.38;;;21.39;54.41
46199;BME280;31928;52.104;10.030;2022-10-18T10:35:56;101575.38;;;21.39;54.11
46199;BME280;31928;52.104;10.030;2022-10-18T10:38:24;101575.38;;;21.39;54.33
46199;BME280;31928;52.104;10.030;2022-10-18T10:40:51;101575.97;;;21.41;54.02
46199;BME280;31928;52.104;10.030;2022-10-18T10:43:20;101573.25;;;21.41;54.05
46199;BME280;31928;52.104;10.030;2022-10-18T10:48:33;101571.09;;;21.43;54.32
46199;BME280;31928;52.104;10.030;2022-10-18T10:51:00;101573.56;;;21.44;54.67
46199;BME280;31928;52.104;10.030;2022-10-18T10:53:29;101572.25;;;21.47;54.21
46199;BME280;31928;52.104;10.030;2022-10-18T10:55:57;101565.44;;;21.49;54.04
46199;BME280;31928;52.104;10.030;2022-10-18T10:58:25;101565.78;;;21.53;54.52
46199;BME280;31928;52.104;10.030;2022-10-18T11:00:53;101573.47;;;21.56;54.40
46199;BME280;31928;52.104;10.030;2022-10-18T11:03:21;101568.31;;;21.59;54.25
46199;BME280;31928;52.104;10.030;2022-10-18T11:05:56;101575.16;;;21.62;54.05
46199;BME280;31928;52.104;10.030;2022-10-18T11:08:43;101582.84;;;21.65;54.20
46199;BME280;31928;52.104;10.030;2022-10-18T11:11:24;101577.94;;;21.67;54.07
46199;BME280;31928;52.104;10.030;2022-10-18T11:16:57;101578.28;;;21.70;53.91
46199;BME280;31928;52.104;10.030;2022-10-18T11:19:36;101574.47;;;21.71;54.00
46199;BME280;31928;52.104;10.030;2022-10-18T11:22:04;101568.16;;;21.71;53.99
46199;BME280;31928;52.104;10.030;2022-10-18T11:24:34;101579.09;;;21.71;53.91
46199;BME280;31928;52.104;10.030;2022-10-18T11:32:16;101575.28;;;21.72;54.20
46199;BME280;31928;52.104;10.030;2022-10-18T11:42:35;101568.50;;;21.74;54.27
46199;BME280;31928;52.104;10.030;2022-10-18T11:50:06;101564.47;;;21.81;54.09
46199;BME280;31928;52.104;10.030;2022-10-18T11:55:23;101555.81;;;21.89;54.73
46199;BME280;31928;52.104;10.030;2022-10-18T11:58:05;101549.34;;;21.95;54.17
46199;BME280;31928;52.104;10.030;2022-10-18T12:03:16;101554.88;;;22.05;54.64
46199;BME280;31928;52.104;10.030;2022-10-18T12:05:45;101550.84;;;22.13;54.92
46199;BME280;31928;52.104;10.030;2022-10-18T12:10:43;101537.63;;;22.31;54.90
46199;BME280;31928;52.104;10.030;2022-10-18T12:13:35;101543.25;;;22.46;54.95
46199;BME280;31928;52.104;10.030;2022-10-18T12:16:04;101543.06;;;22.57;54.91
46199;BME280;31928;52.104;10.030;2022-10-18T12:18:32;101547.25;;;22.70;54.78
46199;BME280;31928;52.104;10.030;2022-10-18T12:20:59;101535.84;;;22.83;54.20
46199;BME280;31928;52.104;10.030;2022-10-18T12:23:34;101528.25;;;22.95;54.69
46199;BME280;31928;52.104;10.030;2022-10-18T12:26:04;101531.63;;;23.11;54.01
46199;BME280;31928;52.104;10.030;2022-10-18T12:33:59;101528.50;;;23.54;53.25
46199;BME280;31928;52.104;10.030;2022-10-18T12:36:43;101517.03;;;23.67;53.08
46199;BME280;31928;52.104;10.030;2022-10-18T12:39:18;101514.38;;;23.82;53.13
46199;BME280;31928;52.104;10.030;2022-10-18T12:42:16;101518.50;;;23.94;52.73
46199;BME280;31928;52.104;10.030;2022-10-18T12:44:43;101521.81;;;24.06;52.63
46199;BME280;31928;52.104;10.030;2022-10-18T12:47:19;101517.69;;;24.14;52.82
46199;BME280;31928;52.104;10.030;2022-10-18T12:49:46;101516.06;;;24.22;51.89
46199;BME280;31928;52.104;10.030;2022-10-18T12:52:24;101512.75;;;24.30;52.24
46199;BME280;31928;52.104;10.030;2022-10-18T13:13:36;101514.91;;;24.78;50.77
46199;BME280;31928;52.104;10.030;2022-10-18T13:18:56;101519.53;;;24.92;51.00
46199;BME280;31928;52.104;10.030;2022-10-18T13:26:33;101515.38;;;25.15;50.81
46199;BME280;31928;52.104;10.030;2022-10-18T13:29:21;101522.19;;;25.22;50.75
46199;BME280;31928;52.104;10.030;2022-10-18T13:32:37;101513.91;;;25.32;50.93
46199;BME280;31928;52.104;10.030;2022-10-18T13:34:36;101520.75;;;25.40;50.82
46199;BME280;31928;52.104;10.030;2022-10-18T13:39:37;101519.56;;;25.55;49.45
46199;BME280;31928;52.104;10.030;2022-10-18T13:44:40;101522.25;;;25.65;49.34
46199;BME280;31928;52.104;10.030;2022-10-18T13:47:12;101524.72;;;25.67;49.50
46199;BME280;31928;52.104;10.030;2022-10-18T13:52:55;101524.72;;;25.67;49.18
46199;BME280;31928;52.104;10.030;2022-10-18T13:57:44;101533.25;;;25.65;48.35
46199;BME280;31928;52.104;10.030;2022-10-18T14:02:53;101530.78;;;25.64;45.98
46199;BME280;31928;52.104;10.030;2022-10-18T14:08:02;101543.94;;;25.67;48.14
46199;BME280;31928;52.104;10.030;2022-10-18T14:10:48;101551.38;;;25.66;47.96
46199;BME280;31928;52.104;10.030;2022-10-18T14:13:40;101546.44;;;25.63;48.06
46199;BME280;31928;52.104;10.030;2022-10-18T14:16:13;101545.94;;;25.56;47.80
46199;BME280;31928;52.104;10.030;2022-10-18T14:18:43;101548.69;;;25.51;47.86
46199;BME280;31928;52.104;10.030;2022-10-18T14:21:15;101550.38;;;25.42;45.89
46199;BME280;31928;52.104;10.030;2022-10-18T14:23:47;101556.44;;;25.40;47.15
46199;BME280;31928;52.104;10.030;2022-10-18T14:26:14;101549.88;;;25.36;47.97
46199;BME280;31928;52.104;10.030;2022-10-18T14:28:41;101552.91;;;25.34;47.82
46199;BME280;31928;52.104;10.030;2022-10-18T14:31:24;101559.22;;;25.35;47.95
46199;BME280;31928;52.104;10.030;2022-10-18T14:33:52;101558.13;;;25.36;48.06
46199;BME280;31928;52.104;10.030;2022-10-18T14:36:24;101563.03;;;25.39;48.09
46199;BME280;31928;52.104;10.030;2022-10-18T14:39:00;101558.34;;;25.44;48.36
46199;BME280;31928;52.104;10.030;2022-10-18T14:49:12;101565.13;;;25.66;48.03
46199;BME280;31928;52.104;10.030;2022-10-18T14:51:39;101563.47;;;25.70;47.64
46199;BME280;31928;52.104;10.030;2022-10-18T14:54:06;101571.69;;;25.75;47.96
46199;BME280;31928;52.104;10.030;2022-10-18T14:56:59;101567.84;;;25.76;47.27
46199;BME280;31928;52.104;10.030;2022-10-18T14:59:26;101562.06;;;25.78;47.54
46199;BME280;31928;52.104;10.030;2022-10-18T15:01:57;101571.66;;;25.80;47.37
46199;BME280;31928;52.104;10.030;2022-10-18T15:04:25;101572.19;;;25.82;47.49
46199;BME280;31928;52.104;10.030;2022-10-18T15:06:59;101576.59;;;25.83;47.32
46199;BME280;31928;52.104;10.030;2022-10-18T15:09:26;101573.25;;;25.86;46.93
46199;BME280;31928;52.104;10.030;2022-10-18T15:11:53;101578.75;;;25.86;47.17
46199;BME280;31928;52.104;10.030;2022-10-18T15:14:23;101577.09;;;25.85;46.68
46199;BME280;31928;52.104;10.030;2022-10-18T15:16:52;101570.00;;;25.84;47.00